Etusivu
METAR-TAF:

METAR-TAF

Lentoasemat :

Recife, Pernambuco, Brasilia

Leveyspiiri: 08-08S, Pituuspiiri: 034-55W, korkeus merenpinnasta: 19 m

Tämänhetkinen sää

Tämä raportti tehtiin 48 minuuttia sitten, kello 17.00 UTC
Tuuli 10 kn idästä/kaakosta
Lämpötila 30°C
Kosteus 70%
Ilmanpaine 1011 hPa
Näkyvyys 10 km tai enemmän
Hajanaisia pilviä 2300 ft:n korkeudessa

METAR: SBRF 241700Z 12010KT 9999 SCT023 30/24 Q1011

Aika: 14:48 (17:48 UTC)

Sääennuste

Tämä raportti tehtiin 1 tunti ja 48 minuuttia sitten, kello 16.00 UTC
Ennuste voimassa 24. päivästä klo 18 UTC - 25. päivään klo 18 UTC
Tuuli 10 kn etelästä/kaakosta
Näkyvyys: 8000 m
Hajanaisia pilviä 2000 ft:n korkeudessa
Ajoittain
25. päivästä klo 03 UTC - 25. päivään klo 09 UTC
Näkyvyys: 6000 m
Hajonneita pilviä 1700 ft:n korkeudessa
vesikuuroja

TAF: SBRF 241600Z 2418/2518 15010KT 8000 SCT020 TN26/2508Z TX30/2516Z PRO30 TEMPO 2503/2509 6000 SHRA BKN017 RMK PCH

Säähavainnot ja -ennusteet yli 4000 lentoasemalta (METAR- ja TAF-raportit).

Käytössä olevat sääasemat on merkitty karttaan keltaisilla ja punaisilla pisteillä.

Aseta hiiri pisteen päälle nähdäksesi sääaseman nimen.

Klikkaa sitten nähdäksesi säähavainnot ja -ennusteet.

Kartan vaihtaminen: klikkaa mustalla rastilla varustettuja vihreitä pisteitä, niin voit zoomata sisään; viivalla varustettua vihreää pistettä, niin voit zoomata ulos tai vihreitä nuolia, niin pääset viereisille kartoille.


METAR-TAF: